Time;durP1;ratioP1;P1;durP2;ratioP2;P2;SDS_P1;SDS_P2;PMS_P1;PMS_P2;Temp;Humidity;BMP_temperature;BMP_pressure;BME280_temperature;BME280_humidity;BME280_pressure;Samples;Min_cycle;Max_cycle;Signal;HPM_P1;HPM_P2
2021/11/26 00:02:21;;;;;;;171.43;91.65;;;;;;;-0.42;90.05;97098.22;1785597;80;21006;-56
2021/11/26 00:04:48;;;;;;;197.82;102.47;;;;;;;-0.44;90.11;97100.28;1785943;79;21123;-56
2021/11/26 00:07:14;;;;;;;209.52;99.90;;;;;;;-0.42;89.94;97100.88;1785617;80;21010;-56
2021/11/26 00:09:40;;;;;;;199.70;103.45;;;;;;;-0.38;89.80;97102.55;1774973;80;21502;-56
2021/11/26 00:12:07;;;;;;;172.47;89.50;;;;;;;-0.36;89.85;97101.27;1776109;80;22316;-56
2021/11/26 00:14:35;;;;;;;173.85;89.55;;;;;;;-0.33;89.86;97100.01;1772629;81;21037;-56
2021/11/26 00:17:03;;;;;;;170.82;88.92;;;;;;;-0.40;90.04;97101.45;1772245;79;21476;-56
2021/11/26 00:19:30;;;;;;;177.43;88.90;;;;;;;-0.43;90.18;97107.22;1772545;81;20997;-56
2021/11/26 00:21:57;;;;;;;181.57;94.55;;;;;;;-0.42;89.70;97116.05;1772328;81;20993;-56
2021/11/26 00:24:23;;;;;;;177.38;88.30;;;;;;;-0.42;90.52;97109.39;1772453;81;21578;-56
2021/11/26 00:26:49;;;;;;;182.72;93.75;;;;;;;-0.45;90.81;97097.33;1772306;80;20927;-56
2021/11/26 00:29:15;;;;;;;148.85;76.28;;;;;;;-0.46;90.82;97098.38;1772344;79;21040;-56
2021/11/26 00:31:41;;;;;;;149.07;77.15;;;;;;;-0.47;90.24;97102.61;1772083;81;21021;-56
2021/11/26 00:34:07;;;;;;;157.85;75.15;;;;;;;-0.48;90.96;97089.02;1772181;79;20998;-56
2021/11/26 00:36:33;;;;;;;150.50;73.72;;;;;;;-0.43;90.31;97093.91;1770497;81;21410;-56
2021/11/26 00:39:00;;;;;;;140.55;70.72;;;;;;;-0.33;90.39;97088.84;1771519;79;21036;-57
2021/11/26 00:41:26;;;;;;;140.20;65.75;;;;;;;-0.21;90.42;97099.47;1786125;79;21507;-56
2021/11/26 00:43:52;;;;;;;149.45;68.42;;;;;;;-0.13;90.17;97098.30;1785599;80;21025;-56
2021/11/26 00:46:19;;;;;;;139.68;75.83;;;;;;;-0.12;89.97;97089.27;1776092;79;20846;-57
2021/11/26 00:48:45;;;;;;;145.10;75.22;;;;;;;-0.16;90.50;97082.28;1772054;79;21566;-56
2021/11/26 00:51:11;;;;;;;142.13;70.72;;;;;;;-0.17;90.68;97083.33;1772128;81;20986;-56
2021/11/26 00:53:37;;;;;;;128.38;61.77;;;;;;;-0.12;90.50;97078.09;1786111;79;20882;-56
2021/11/26 00:56:04;;;;;;;111.65;53.10;;;;;;;-0.14;90.82;97077.52;1759143;80;20901;-56
2021/11/26 00:58:30;;;;;;;143.70;69.25;;;;;;;-0.14;89.97;97074.05;1772272;79;20993;-56
2021/11/26 01:00:56;;;;;;;118.70;61.77;;;;;;;-0.19;89.82;97080.06;1772737;81;21589;-56
2021/11/26 01:03:22;;;;;;;115.97;60.05;;;;;;;-0.12;89.99;97083.42;1772057;79;20929;-57
2021/11/26 01:05:49;;;;;;;103.92;49.55;;;;;;;-0.08;90.93;97067.80;1772733;81;21600;-56
2021/11/26 01:08:17;;;;;;;198.32;86.75;;;;;;;-0.04;90.02;97053.76;1772310;79;21005;-56
2021/11/26 01:10:44;;;;;;;120.67;62.05;;;;;;;-0.10;89.80;97048.03;1772077;80;21021;-56
2021/11/26 01:13:10;;;;;;;113.37;56.02;;;;;;;-0.14;89.78;97044.76;1772281;79;21147;-56
2021/11/26 01:15:36;;;;;;;115.20;58.17;;;;;;;-0.17;90.19;97042.05;1751074;80;21024;-56
2021/11/26 01:18:03;;;;;;;144.80;69.22;;;;;;;-0.19;89.62;97039.31;1725609;81;20977;-56
2021/11/26 01:20:30;;;;;;;130.70;67.12;;;;;;;-0.26;90.76;97029.31;1772528;80;20991;-56
2021/11/26 01:22:57;;;;;;;145.53;69.42;;;;;;;-0.22;90.62;97030.48;1772023;79;21523;-56
2021/11/26 01:25:23;;;;;;;132.32;67.15;;;;;;;-0.22;89.72;97023.82;1750645;80;21052;-56
2021/11/26 01:27:49;;;;;;;146.72;74.50;;;;;;;-0.33;89.63;97015.63;1772423;79;20893;-56
2021/11/26 01:30:25;;;;;;;133.50;71.00;;;;;;;-0.36;89.62;97023.25;1772349;80;20969;-56
2021/11/26 01:32:49;;;;;;;139.18;69.07;;;;;;;-0.41;90.37;97029.81;1771597;79;21428;-56
2021/11/26 01:35:16;;;;;;;129.72;69.07;;;;;;;-0.41;90.84;97028.48;1772276;81;21066;-56
2021/11/26 01:37:42;;;;;;;126.42;66.20;;;;;;;-0.42;91.42;97024.21;1767642;80;21261;-56
2021/11/26 01:40:10;;;;;;;135.30;66.25;;;;;;;-0.44;90.69;97029.74;1781147;79;21145;-56
2021/11/26 01:42:36;;;;;;;137.80;72.10;;;;;;;-0.53;91.50;97027.15;1786022;79;20994;-56
2021/11/26 01:45:02;;;;;;;127.70;60.52;;;;;;;-0.49;91.23;97030.17;1785900;79;20909;-56
2021/11/26 01:47:28;;;;;;;135.65;63.63;;;;;;;-0.47;90.37;97035.55;1774557;80;21021;-56
2021/11/26 01:49:55;;;;;;;127.80;64.32;;;;;;;-0.47;90.62;97032.08;1776626;80;21197;-56
2021/11/26 01:52:22;;;;;;;136.65;66.82;;;;;;;-0.44;90.08;97036.40;1778740;80;21067;-56
2021/11/26 01:54:48;;;;;;;125.92;65.55;;;;;;;-0.51;90.94;97034.90;1777268;80;21001;-56
2021/11/26 01:57:17;;;;;;;116.30;58.98;;;;;;;-0.53;90.71;97027.15;1772224;79;20898;-56
2021/11/26 01:59:43;;;;;;;98.70;49.60;;;;;;;-0.54;90.47;97037.52;1772339;80;21111;-56
2021/11/26 02:02:09;;;;;;;98.90;47.98;;;;;;;-0.52;90.20;97030.63;1772212;79;21967;-56
2021/11/26 02:04:35;;;;;;;119.95;61.28;;;;;;;-0.53;90.16;97023.16;1772294;80;20966;-56
2021/11/26 02:07:02;;;;;;;128.32;68.02;;;;;;;-0.50;90.23;97028.56;1772592;79;20949;-56
2021/11/26 02:09:28;;;;;;;120.33;58.30;;;;;;;-0.46;90.23;97022.52;1778976;80;20955;-56
2021/11/26 02:11:54;;;;;;;137.50;71.67;;;;;;;-0.44;90.64;97016.95;1785869;79;21487;-56
2021/11/26 02:14:20;;;;;;;140.60;69.37;;;;;;;-0.41;90.50;97017.84;1785661;79;21190;-56
2021/11/26 02:16:48;;;;;;;131.15;67.53;;;;;;;-0.35;90.35;97014.22;1785821;79;21130;-56
2021/11/26 02:19:14;;;;;;;133.85;68.50;;;;;;;-0.38;90.90;97006.19;1785670;79;21014;-56
2021/11/26 02:21:40;;;;;;;123.90;62.27;;;;;;;-0.31;90.59;97012.72;1786000;79;21612;-57
2021/11/26 02:24:07;;;;;;;122.78;60.45;;;;;;;-0.26;90.37;97008.02;1780891;79;21523;-56
2021/11/26 02:26:39;;;;;;;174.55;81.08;;;;;;;-0.26;90.55;97010.15;1772745;80;22278;-56
2021/11/26 02:29:05;;;;;;;127.30;65.28;;;;;;;-0.25;90.31;97013.66;1771318;79;21085;-56
2021/11/26 02:31:31;;;;;;;127.07;62.88;;;;;;;-0.29;90.42;96999.98;1772583;81;21033;-57
2021/11/26 02:33:57;;;;;;;114.35;60.65;;;;;;;-0.32;91.25;96999.13;1772368;79;20953;-56
2021/11/26 02:36:23;;;;;;;101.85;50.48;;;;;;;-0.30;91.39;96986.39;1770969;81;21029;-56
2021/11/26 02:38:49;;;;;;;102.80;47.73;;;;;;;-0.26;91.07;96980.05;1771283;79;21892;-56
2021/11/26 02:41:15;;;;;;;94.35;49.33;;;;;;;-0.26;90.56;96986.19;1786016;79;20914;-56
2021/11/26 02:43:41;;;;;;;96.72;50.25;;;;;;;-0.27;90.92;96975.25;1772253;81;21591;-56
2021/11/26 02:46:07;;;;;;;140.95;63.80;;;;;;;-0.23;90.52;96966.30;1772470;81;20866;-57
2021/11/26 02:48:33;;;;;;;112.75;53.02;;;;;;;-0.24;90.32;96964.16;1772341;79;22222;-56
2021/11/26 02:51:00;;;;;;;113.05;56.77;;;;;;;-0.15;90.50;96952.61;1772425;80;21170;-56
2021/11/26 02:53:26;;;;;;;98.07;49.45;;;;;;;-0.12;90.71;96950.27;1781822;80;21015;-56
2021/11/26 02:55:52;;;;;;;96.15;51.95;;;;;;;-0.05;91.23;96938.95;1777748;79;21518;-57
2021/11/26 02:58:19;;;;;;;87.88;45.80;;;;;;;0.05;91.18;96936.99;1771779;79;38847;-56
2021/11/26 03:00:48;;;;;;;97.25;47.03;;;;;;;0.09;90.87;96939.48;1772744;80;21060;-57
2021/11/26 03:03:14;;;;;;;91.50;46.18;;;;;;;0.11;91.07;96928.58;1750485;80;21090;-56
2021/11/26 03:05:40;;;;;;;88.90;47.80;;;;;;;0.12;91.07;96932.86;1772177;80;20989;-57
2021/11/26 03:08:07;;;;;;;108.72;54.40;;;;;;;0.10;91.10;96934.44;1772291;79;20982;-57
2021/11/26 03:10:34;;;;;;;106.40;52.90;;;;;;;0.14;90.64;96942.74;1772450;80;20977;-56
2021/11/26 03:13:04;;;;;;;104.43;53.92;;;;;;;0.11;90.31;96942.70;1750430;80;21562;-56
2021/11/26 03:15:31;;;;;;;97.50;52.43;;;;;;;0.09;90.83;96942.14;1772361;81;21147;-56
2021/11/26 03:17:57;;;;;;;115.25;57.08;;;;;;;0.13;90.39;96937.13;1772023;79;21483;-56
2021/11/26 03:20:25;;;;;;;116.40;59.30;;;;;;;0.07;90.33;96940.22;1772431;80;21048;-56
2021/11/26 03:22:51;;;;;;;105.47;53.85;;;;;;;0.05;91.06;96936.99;1772409;79;21570;-56
2021/11/26 03:25:17;;;;;;;87.72;44.80;;;;;;;0.10;92.23;96939.77;1772511;81;21002;-56
2021/11/26 03:27:44;;;;;;;84.65;43.13;;;;;;;0.16;91.26;96926.80;1772316;79;21546;-56
2021/11/26 03:30:12;;;;;;;84.90;45.63;;;;;;;0.17;90.87;96919.61;1772161;80;21110;-56
2021/11/26 03:32:39;;;;;;;82.65;42.08;;;;;;;0.18;91.41;96912.73;1772408;79;21471;-56
2021/11/26 03:35:06;;;;;;;88.97;41.25;;;;;;;0.16;91.67;96902.02;1772470;80;21541;-57
2021/11/26 03:37:33;;;;;;;74.25;40.43;;;;;;;0.18;91.83;96911.41;1751534;80;21150;-56
2021/11/26 03:39:59;;;;;;;84.30;41.28;;;;;;;0.23;91.13;96914.13;1773284;80;21645;-56
2021/11/26 03:42:25;;;;;;;84.00;39.67;;;;;;;0.19;91.21;96915.68;1785797;79;20971;-57
2021/11/26 03:44:51;;;;;;;101.53;50.85;;;;;;;0.22;90.96;96907.19;1785894;79;20933;-56
2021/11/26 03:47:17;;;;;;;88.90;45.35;;;;;;;0.25;91.39;96902.70;1774681;80;20946;-57
2021/11/26 03:49:44;;;;;;;102.90;50.83;;;;;;;0.31;91.18;96898.28;1785753;79;21039;-56
2021/11/26 03:52:10;;;;;;;119.77;57.88;;;;;;;0.34;91.37;96891.13;1780860;79;21552;-56
2021/11/26 03:54:38;;;;;;;143.43;67.47;;;;;;;0.44;91.73;96887.31;1771819;80;20957;-57
2021/11/26 03:57:04;;;;;;;159.30;74.22;;;;;;;0.54;91.41;96888.80;1772501;79;20997;-56
2021/11/26 03:59:30;;;;;;;154.30;78.20;;;;;;;0.66;90.97;96891.89;1772563;80;21004;-57
2021/11/26 04:01:56;;;;;;;174.77;82.78;;;;;;;0.56;90.62;96879.22;1772357;80;21046;-57
2021/11/26 04:04:22;;;;;;;184.13;82.72;;;;;;;0.48;91.25;96873.77;1772464;80;21234;-57
2021/11/26 04:06:48;;;;;;;187.45;89.15;;;;;;;0.52;91.81;96869.58;1772197;80;21019;-56
2021/11/26 04:09:14;;;;;;;164.45;77.70;;;;;;;0.59;91.82;96874.73;1772181;79;21042;-57
2021/11/26 04:11:40;;;;;;;178.85;83.30;;;;;;;0.59;90.63;96869.39;1772594;80;20834;-56
2021/11/26 04:14:06;;;;;;;166.18;87.62;;;;;;;0.52;90.56;96869.58;1772211;79;21102;-56
2021/11/26 04:16:34;;;;;;;170.30;84.85;;;;;;;0.50;91.38;96871.66;1772424;80;21559;-57
2021/11/26 04:19:00;;;;;;;161.00;83.95;;;;;;;0.61;91.51;96861.17;1772045;79;21013;-57
2021/11/26 04:21:26;;;;;;;123.90;57.80;;;;;;;0.68;91.88;96863.13;1772576;80;20970;-57
2021/11/26 04:23:52;;;;;;;121.20;61.90;;;;;;;0.70;90.96;96855.70;1772098;79;21624;-57
2021/11/26 04:26:18;;;;;;;121.02;59.77;;;;;;;0.68;90.85;96853.27;1772365;80;20881;-57
2021/11/26 04:28:44;;;;;;;128.72;63.35;;;;;;;0.70;90.86;96849.05;1772187;79;21372;-57
2021/11/26 04:31:10;;;;;;;121.97;62.78;;;;;;;0.73;90.97;96852.02;1772441;80;21501;-57
2021/11/26 04:33:36;;;;;;;108.60;54.40;;;;;;;0.76;91.30;96854.70;1765000;79;20929;-57
2021/11/26 04:36:03;;;;;;;104.07;54.08;;;;;;;0.80;91.77;96853.18;1776132;79;20815;-57
2021/11/26 04:38:29;;;;;;;106.37;51.88;;;;;;;0.82;92.11;96843.88;1745701;80;21518;-57
2021/11/26 04:40:55;;;;;;;86.97;43.23;;;;;;;0.84;92.20;96844.95;1786009;79;21745;-57
2021/11/26 04:43:21;;;;;;;81.17;43.92;;;;;;;0.85;91.55;96837.23;1785472;80;20994;-57
2021/11/26 04:45:49;;;;;;;91.95;43.65;;;;;;;0.81;91.57;96836.93;1785994;79;21006;-57
2021/11/26 04:48:15;;;;;;;105.05;51.35;;;;;;;0.84;91.47;96838.28;1786092;79;21006;-57
2021/11/26 04:50:42;;;;;;;140.22;69.22;;;;;;;0.94;91.48;96833.11;1786074;79;21014;-57
2021/11/26 04:53:08;;;;;;;152.12;75.70;;;;;;;0.95;90.92;96823.25;1775055;79;22337;-57
2021/11/26 04:55:34;;;;;;;120.67;63.13;;;;;;;0.94;91.22;96817.11;1772348;80;20922;-57
2021/11/26 04:58:00;;;;;;;145.77;74.62;;;;;;;1.04;91.33;96818.56;1772403;79;20890;-56
2021/11/26 05:00:26;;;;;;;138.62;73.65;;;;;;;1.13;91.42;96815.74;1772362;80;20917;-57
2021/11/26 05:02:52;;;;;;;143.25;73.90;;;;;;;1.20;91.29;96818.73;1772285;79;20992;-57
2021/11/26 05:05:18;;;;;;;147.78;76.12;;;;;;;1.25;91.07;96820.14;1771930;80;21041;-57
2021/11/26 05:07:45;;;;;;;141.70;77.87;;;;;;;1.29;91.18;96821.27;1772239;79;20997;-57
2021/11/26 05:10:12;;;;;;;151.50;77.55;;;;;;;1.30;91.30;96805.53;1772224;81;20978;-57
2021/11/26 05:12:42;;;;;;;142.45;75.80;;;;;;;1.27;91.19;96810.01;1772201;80;21550;-57
2021/11/26 05:15:07;;;;;;;174.57;83.55;;;;;;;1.24;91.31;96805.98;1772836;79;21294;-57
2021/11/26 05:17:33;;;;;;;169.05;75.83;;;;;;;1.16;90.69;96812.29;1772387;79;21533;-57
2021/11/26 05:19:59;;;;;;;136.28;73.57;;;;;;;1.10;91.01;96810.88;1774733;80;20946;-57
2021/11/26 05:22:25;;;;;;;147.68;76.25;;;;;;;1.08;91.19;96815.66;1786024;80;21519;-57
2021/11/26 05:24:51;;;;;;;150.35;76.90;;;;;;;1.04;91.39;96811.09;1785833;80;20955;-57
2021/11/26 05:27:18;;;;;;;160.97;80.07;;;;;;;1.01;91.49;96802.23;1775094;80;20957;-57
2021/11/26 05:29:43;;;;;;;156.32;81.82;;;;;;;0.96;92.93;96795.52;1785760;80;22354;-57
2021/11/26 05:32:11;;;;;;;147.32;76.53;;;;;;;1.03;92.58;96796.95;1785793;79;21058;-57
2021/11/26 05:34:38;;;;;;;118.53;62.53;;;;;;;1.06;92.58;96793.77;1778179;79;21057;-57
2021/11/26 05:37:04;;;;;;;108.55;56.68;;;;;;;1.06;91.72;96788.44;1769334;80;21003;-57
2021/11/26 05:39:30;;;;;;;95.65;49.65;;;;;;;1.07;91.93;96785.23;1775913;80;21006;-57
2021/11/26 05:41:56;;;;;;;90.70;48.92;;;;;;;1.11;91.82;96781.84;1786056;79;21360;-57
2021/11/26 05:44:22;;;;;;;87.17;45.78;;;;;;;1.09;91.78;96776.45;1785442;79;20970;-57
2021/11/26 05:46:48;;;;;;;92.50;45.03;;;;;;;1.02;91.80;96779.30;1773359;79;21036;-57
2021/11/26 05:49:14;;;;;;;98.45;51.15;;;;;;;1.00;92.17;96785.95;1750539;80;20867;-57
2021/11/26 05:51:40;;;;;;;129.90;68.92;;;;;;;1.00;91.93;96787.28;1775066;80;20861;-57
2021/11/26 05:54:06;;;;;;;111.90;63.02;;;;;;;0.97;91.53;96782.45;1786129;79;21549;-57
2021/11/26 05:56:32;;;;;;;107.75;55.40;;;;;;;0.97;91.56;96777.92;1786183;79;20835;-57
2021/11/26 05:58:58;;;;;;;124.38;68.95;;;;;;;0.98;91.28;96766.73;1772694;79;21605;-57
2021/11/26 06:01:24;;;;;;;112.50;62.13;;;;;;;0.97;91.45;96761.11;1765653;80;20974;-57
2021/11/26 06:03:50;;;;;;;119.77;61.10;;;;;;;1.00;91.42;96761.41;1765331;79;20909;-57
2021/11/26 06:06:17;;;;;;;98.00;52.03;;;;;;;1.04;91.57;96759.88;1761118;81;21503;-57
2021/11/26 06:08:43;;;;;;;96.12;48.95;;;;;;;1.10;91.80;96752.71;1751194;80;21098;-57
2021/11/26 06:11:09;;;;;;;93.97;47.88;;;;;;;1.19;91.88;96751.21;1761528;80;20881;-57
2021/11/26 06:13:35;;;;;;;89.42;51.58;;;;;;;1.26;91.77;96751.02;1741683;81;21657;-57
2021/11/26 06:16:01;;;;;;;90.72;50.30;;;;;;;1.34;92.12;96757.25;1761022;80;20864;-57
2021/11/26 06:18:28;;;;;;;132.70;65.57;;;;;;;1.37;92.29;96760.23;1764675;80;21106;-57
2021/11/26 06:20:54;;;;;;;205.95;100.18;;;;;;;1.35;91.82;96760.19;1772789;80;20921;-57
2021/11/26 06:23:20;;;;;;;262.70;130.70;;;;;;;1.26;91.30;96764.37;1772027;79;20878;-57
2021/11/26 06:25:46;;;;;;;283.02;140.35;;;;;;;1.23;91.33;96764.34;1773682;80;21582;-57
2021/11/26 06:28:12;;;;;;;176.05;86.95;;;;;;;1.19;91.11;96774.42;1767197;79;20938;-57
2021/11/26 06:30:38;;;;;;;184.07;94.52;;;;;;;1.22;91.37;96776.61;1774169;80;21146;-57
2021/11/26 06:33:05;;;;;;;199.50;93.05;;;;;;;1.16;91.46;96765.59;1772024;80;20997;-57
2021/11/26 06:35:31;;;;;;;173.07;88.35;;;;;;;1.21;92.18;96757.13;1784978;80;20975;-57
2021/11/26 06:37:57;;;;;;;159.78;82.22;;;;;;;1.24;93.39;96753.95;1772315;79;20925;-57
2021/11/26 06:40:24;;;;;;;123.80;62.65;;;;;;;1.27;93.21;96748.09;1775331;79;21471;-57
2021/11/26 06:42:50;;;;;;;106.97;58.17;;;;;;;1.31;93.19;96746.55;1766836;79;21549;-57
2021/11/26 06:45:16;;;;;;;113.50;59.15;;;;;;;1.31;93.24;96746.55;1769777;80;21073;-57
2021/11/26 06:47:43;;;;;;;101.25;53.90;;;;;;;1.35;93.25;96734.83;1769012;80;20971;-57
2021/11/26 06:50:10;;;;;;;94.83;51.77;;;;;;;1.35;92.90;96733.50;1769924;80;21660;-57
2021/11/26 06:52:36;;;;;;;103.97;53.00;;;;;;;1.31;92.62;96734.55;1772978;79;21068;-57
2021/11/26 06:55:03;;;;;;;111.05;58.28;;;;;;;1.29;92.13;96735.33;1777063;80;21180;-56
2021/11/26 06:57:29;;;;;;;112.25;57.33;;;;;;;1.28;91.98;96736.89;1770614;80;21013;-57
2021/11/26 06:59:55;;;;;;;113.97;60.20;;;;;;;1.32;91.92;96736.16;1770225;80;21037;-57
2021/11/26 07:02:21;;;;;;;112.03;60.08;;;;;;;1.35;92.28;96726.30;1764641;80;20925;-57
2021/11/26 07:04:48;;;;;;;113.97;59.50;;;;;;;1.38;92.14;96723.14;1767265;79;21041;-58
2021/11/26 07:07:14;;;;;;;119.77;64.27;;;;;;;1.39;91.93;96723.41;1764574;79;21167;-57
2021/11/26 07:09:40;;;;;;;139.12;68.55;;;;;;;1.42;91.84;96723.43;1769760;80;21582;-57
2021/11/26 07:12:10;;;;;;;152.17;79.67;;;;;;;1.46;92.04;96717.88;1768755;81;20986;-57
2021/11/26 07:14:35;;;;;;;174.30;84.85;;;;;;;1.50;91.83;96718.97;1790126;78;20979;-57
2021/11/26 07:17:01;;;;;;;287.70;123.95;;;;;;;1.54;91.91;96720.59;1788384;78;21116;-57
2021/11/26 07:19:27;;;;;;;327.98;150.00;;;;;;;1.58;91.84;96723.05;1789729;79;21173;-57
2021/11/26 07:21:53;;;;;;;216.97;105.00;;;;;;;1.59;91.76;96718.78;1774227;79;22037;-57
2021/11/26 07:24:19;;;;;;;266.60;121.87;;;;;;;1.56;91.38;96708.63;1752814;80;21040;-58
2021/11/26 07:26:45;;;;;;;242.85;117.80;;;;;;;1.56;91.38;96708.63;1746858;80;20917;-57
2021/11/26 07:29:11;;;;;;;197.82;94.03;;;;;;;1.59;91.51;96704.62;1761676;81;21047;-57
2021/11/26 07:31:37;;;;;;;176.30;86.55;;;;;;;1.62;91.60;96706.78;1760003;79;21163;-56
2021/11/26 07:34:03;;;;;;;171.68;89.90;;;;;;;1.56;91.25;96709.16;1771215;80;21041;-57
2021/11/26 07:36:29;;;;;;;166.68;87.53;;;;;;;1.49;91.57;96700.54;1758186;80;20858;-57
2021/11/26 07:38:55;;;;;;;158.70;81.25;;;;;;;1.51;91.96;96697.08;1766022;80;21131;-57
2021/11/26 07:41:22;;;;;;;160.15;86.80;;;;;;;1.52;92.51;96690.67;1752301;80;21095;-57
2021/11/26 07:43:48;;;;;;;155.50;85.00;;;;;;;1.52;92.71;96684.80;1751221;81;21725;-57
2021/11/26 07:46:14;;;;;;;141.88;74.85;;;;;;;1.51;91.76;96680.53;1757584;80;21076;-57
2021/11/26 07:48:41;;;;;;;154.27;83.78;;;;;;;1.49;92.02;96676.52;1753295;80;20936;-57
2021/11/26 07:51:07;;;;;;;176.85;93.67;;;;;;;1.43;92.63;96676.19;1749813;80;21040;-57
2021/11/26 07:53:33;;;;;;;188.10;96.85;;;;;;;1.47;92.18;96666.09;1753027;80;21072;-57
2021/11/26 07:56:00;;;;;;;183.65;100.25;;;;;;;1.55;92.23;96670.97;1763416;79;21417;-57
2021/11/26 07:58:26;;;;;;;187.32;101.35;;;;;;;1.63;92.07;96667.03;1762591;79;21530;-56
2021/11/26 08:00:52;;;;;;;198.82;106.07;;;;;;;1.68;92.12;96661.70;1757938;79;20956;-57
2021/11/26 08:03:20;;;;;;;189.65;100.75;;;;;;;1.74;91.86;96659.36;1749019;80;20872;-56
2021/11/26 08:05:46;;;;;;;230.05;114.15;;;;;;;1.79;92.24;96662.05;1753018;79;21206;-57
2021/11/26 08:08:12;;;;;;;195.80;105.07;;;;;;;1.83;91.99;96657.81;1743870;80;21097;-56
2021/11/26 08:10:38;;;;;;;178.97;94.35;;;;;;;1.79;92.49;96654.03;1757693;81;20942;-56
2021/11/26 08:13:05;;;;;;;185.63;99.58;;;;;;;1.82;92.64;96654.07;1738792;81;21120;-57
2021/11/26 08:15:31;;;;;;;171.62;94.42;;;;;;;1.82;92.82;96649.53;1760452;81;21014;-57
2021/11/26 08:17:59;;;;;;;157.43;85.15;;;;;;;1.84;92.43;96653.28;1771532;80;21017;-57
2021/11/26 08:20:25;;;;;;;157.80;92.45;;;;;;;1.84;92.01;96642.06;1767476;79;21875;-57
2021/11/26 08:22:51;;;;;;;152.05;80.20;;;;;;;1.90;92.34;96642.38;1758849;79;21509;-57
2021/11/26 08:25:19;;;;;;;138.45;75.25;;;;;;;1.90;92.30;96641.04;1748016;80;21063;-57
2021/11/26 08:27:45;;;;;;;115.30;63.02;;;;;;;1.95;92.31;96646.39;1746982;80;21107;-58
2021/11/26 08:30:11;;;;;;;140.77;76.80;;;;;;;1.94;92.11;96640.78;1751636;80;21089;-57
2021/11/26 08:32:38;;;;;;;160.72;85.57;;;;;;;1.91;92.39;96634.63;1748310;81;21096;-57
2021/11/26 08:35:05;;;;;;;174.20;95.17;;;;;;;1.92;92.04;96644.25;1753680;80;20990;-57
2021/11/26 08:37:31;;;;;;;163.30;91.95;;;;;;;1.89;92.40;96640.77;1743474;80;21072;-57
2021/11/26 08:39:57;;;;;;;170.15;93.47;;;;;;;1.89;92.28;96635.42;1740851;80;21991;-57
2021/11/26 08:42:23;;;;;;;159.60;92.92;;;;;;;1.95;92.59;96617.55;1748483;80;21003;-57
2021/11/26 08:44:49;;;;;;;175.42;99.62;;;;;;;1.99;92.96;96621.33;1771601;78;22292;-57
2021/11/26 08:47:15;;;;;;;149.62;79.75;;;;;;;1.95;92.99;96610.86;1755564;80;20940;-57
2021/11/26 08:49:41;;;;;;;160.72;90.20;;;;;;;1.95;92.87;96614.87;1764106;78;21000;-57
2021/11/26 08:52:07;;;;;;;154.50;81.10;;;;;;;1.93;92.75;96611.66;1767890;78;21004;-57
2021/11/26 08:54:36;;;;;;;156.15;91.17;;;;;;;1.92;92.31;96612.19;1757962;80;21579;-56
2021/11/26 08:57:02;;;;;;;148.53;85.50;;;;;;;1.93;92.13;96606.31;1765407;80;21314;-57
2021/11/26 08:59:28;;;;;;;161.80;87.45;;;;;;;2.02;92.80;96603.95;1763775;80;21671;-56
2021/11/26 09:01:54;;;;;;;163.43;84.83;;;;;;;2.04;93.21;96605.83;1755145;80;20918;-57
2021/11/26 09:04:23;;;;;;;152.97;82.30;;;;;;;2.04;93.02;96601.30;1754791;80;21122;-58
2021/11/26 09:06:51;;;;;;;139.72;74.80;;;;;;;2.02;93.22;96594.61;1763885;79;21107;-57
2021/11/26 09:09:17;;;;;;;154.30;86.22;;;;;;;2.03;93.08;96591.67;1755940;79;21164;-56
2021/11/26 09:11:43;;;;;;;141.25;80.62;;;;;;;2.11;92.98;96593.85;1759572;80;20874;-57
2021/11/26 09:14:09;;;;;;;132.93;72.30;;;;;;;2.18;92.98;96581.59;1757313;80;21538;-57
2021/11/26 09:16:35;;;;;;;126.92;70.28;;;;;;;2.18;92.71;96574.91;1753674;80;21032;-57
2021/11/26 09:19:02;;;;;;;122.02;69.60;;;;;;;2.17;92.27;96583.47;1770434;80;21410;-57
2021/11/26 09:21:29;;;;;;;146.90;94.55;;;;;;;2.15;92.45;96572.23;1758066;78;22272;-57
2021/11/26 09:23:55;;;;;;;124.53;74.05;;;;;;;2.20;92.64;96568.23;1764391;79;22238;-57
2021/11/26 09:26:22;;;;;;;128.40;76.25;;;;;;;2.26;93.07;96562.38;1767054;78;21300;-57
2021/11/26 09:28:48;;;;;;;124.97;75.32;;;;;;;2.25;93.01;96556.77;1783737;78;21081;-56
2021/11/26 09:31:16;;;;;;;149.90;83.25;;;;;;;2.17;93.17;96558.61;1768146;79;21535;-56
2021/11/26 09:33:42;;;;;;;126.92;77.32;;;;;;;2.15;93.13;96551.39;1778591;79;21454;-57
2021/11/26 09:36:09;;;;;;;144.28;76.33;;;;;;;2.13;93.15;96540.94;1750800;80;21088;-57
2021/11/26 09:38:37;;;;;;;147.62;80.22;;;;;;;2.09;93.68;96543.08;1761341;80;21143;-56
2021/11/26 09:41:04;;;;;;;141.65;75.47;;;;;;;2.03;93.73;96534.22;1745052;81;21112;-57
2021/11/26 09:43:30;;;;;;;155.12;80.83;;;;;;;2.05;93.78;96532.63;1751851;80;21139;-57
2021/11/26 09:45:57;;;;;;;160.60;80.97;;;;;;;2.06;93.27;96534.25;1720143;81;21537;-57
2021/11/26 09:48:23;;;;;;;184.45;92.75;;;;;;;2.06;92.99;96527.58;1778628;79;21575;-56
2021/11/26 09:50:49;;;;;;;204.55;103.02;;;;;;;2.07;93.34;96528.64;1795414;79;21006;-57
2021/11/26 09:53:21;;;;;;;229.75;113.75;;;;;;;2.07;93.07;96524.64;1749595;80;21293;-57
2021/11/26 09:55:54;;;;;;;441.77;243.40;;;;;;;2.07;92.72;96518.49;1765005;80;21048;-57
2021/11/26 09:58:21;;;;;;;214.05;112.97;;;;;;;2.09;93.02;96505.13;1765755;80;21036;-57
2021/11/26 10:00:48;;;;;;;227.25;124.18;;;;;;;2.21;93.43;96505.69;1755626;80;21530;-57
2021/11/26 10:03:15;;;;;;;171.57;93.67;;;;;;;2.25;93.10;96488.61;1759476;80;21674;-56
2021/11/26 10:05:41;;;;;;;153.80;81.28;;;;;;;2.28;93.23;96488.08;1729940;81;21168;-57
2021/11/26 10:08:08;;;;;;;176.53;99.92;;;;;;;2.34;92.84;96472.86;1747318;80;21247;-57
2021/11/26 10:10:36;;;;;;;176.72;99.10;;;;;;;2.34;92.67;96462.97;1756203;80;21052;-56
2021/11/26 10:13:09;;;;;;;172.25;95.25;;;;;;;2.36;92.77;96454.14;1765324;79;20977;-56
2021/11/26 10:15:46;;;;;;;180.97;99.65;;;;;;;2.44;92.96;96446.94;1750212;79;21064;-57
2021/11/26 10:18:22;;;;;;;185.30;98.33;;;;;;;2.53;93.38;96440.53;1747258;79;21466;-56
2021/11/26 10:21:02;;;;;;;193.17;100.92;;;;;;;2.60;93.52;96431.72;1736747;80;21043;-57
2021/11/26 10:23:32;;;;;;;200.05;105.60;;;;;;;2.70;93.05;96429.58;1729001;79;21361;-57
2021/11/26 10:26:11;;;;;;;193.72;103.07;;;;;;;2.76;92.87;96413.80;1734617;79;20980;-56
2021/11/26 10:28:39;;;;;;;219.68;113.22;;;;;;;2.82;92.82;96406.05;1747716;79;28402;-57
2021/11/26 10:31:06;;;;;;;223.07;113.10;;;;;;;2.84;92.36;96406.57;1740570;79;21007;-56
2021/11/26 10:33:33;;;;;;;214.27;111.55;;;;;;;2.88;92.47;96409.50;1736549;80;21086;-56
2021/11/26 10:36:01;;;;;;;216.50;117.10;;;;;;;2.86;92.16;96408.44;1734284;79;21147;-57
2021/11/26 10:38:32;;;;;;;228.47;123.30;;;;;;;2.93;92.59;96392.91;1741894;79;21039;-56
2021/11/26 10:41:07;;;;;;;242.28;128.25;;;;;;;2.99;92.78;96389.16;1736828;79;21126;-57
2021/11/26 10:43:42;;;;;;;211.40;121.55;;;;;;;3.07;92.68;96383.77;1747339;79;21156;-58
2021/11/26 10:46:28;;;;;;;186.70;107.80;;;;;;;3.18;92.80;96372.52;1743927;79;21064;-57
2021/11/26 10:49:09;;;;;;;162.07;91.20;;;;;;;3.22;92.76;96367.67;1733495;80;21120;-57
2021/11/26 10:57:38;;;;;;;141.43;76.20;;;;;;;3.10;92.73;96347.11;1663016;84;21016;-57
2021/11/26 11:00:10;;;;;;;187.43;94.57;;;;;;;3.28;92.60;96337.69;1659584;84;21057;-57
2021/11/26 11:02:39;;;;;;;170.92;94.30;;;;;;;3.28;92.60;96337.69;1724363;79;21638;-57
2021/11/26 11:05:09;;;;;;;168.40;89.75;;;;;;;3.33;92.19;96337.65;1760722;79;21963;-58
2021/11/26 11:07:43;;;;;;;162.27;84.20;;;;;;;3.37;92.19;96327.47;1759455;80;21522;-57
2021/11/26 11:10:13;;;;;;;155.30;82.57;;;;;;;3.43;92.74;96318.09;1748314;79;21135;-57
2021/11/26 11:12:39;;;;;;;126.75;70.28;;;;;;;3.50;92.59;96309.98;1745944;79;21001;-57
2021/11/26 11:15:11;;;;;;;128.07;73.10;;;;;;;3.49;92.91;96312.95;1748089;79;21150;-57
2021/11/26 11:17:37;;;;;;;149.97;83.10;;;;;;;3.54;92.51;96307.04;1754375;80;20992;-57
2021/11/26 11:20:11;;;;;;;139.18;79.42;;;;;;;3.64;92.58;96308.86;1748602;79;21047;-57